createdAt,value
2023-07-25T00:01:24.364Z,18.14
2023-07-25T00:04:26.555Z,18.12
2023-07-25T00:07:28.265Z,18.25
2023-07-25T00:10:34.017Z,18.15
2023-07-25T00:13:36.233Z,18.14
2023-07-25T00:16:38.055Z,18.07
2023-07-25T00:19:39.813Z,17.94
2023-07-25T00:22:41.992Z,17.92
2023-07-25T00:25:46.116Z,17.82
2023-07-25T00:28:49.018Z,17.87
2023-07-25T00:31:51.066Z,17.92
2023-07-25T00:34:53.306Z,17.85
2023-07-25T00:37:55.022Z,17.82
2023-07-25T00:40:58.923Z,17.80
2023-07-25T00:44:00.944Z,17.67
2023-07-25T00:47:03.059Z,17.83
2023-07-25T00:50:05.760Z,17.71
2023-07-25T00:53:08.093Z,17.79
2023-07-25T00:56:13.450Z,17.84
2023-07-25T00:59:15.233Z,17.80
2023-07-25T01:02:20.704Z,17.76
2023-07-25T01:05:23.851Z,17.75
2023-07-25T01:08:25.611Z,17.71
2023-07-25T01:11:29.844Z,17.61
2023-07-25T01:14:32.268Z,17.69
2023-07-25T01:17:34.390Z,17.48
2023-07-25T01:20:37.113Z,17.54
2023-07-25T01:23:39.437Z,17.55
2023-07-25T01:26:45.039Z,17.64
2023-07-25T01:29:46.853Z,17.74
2023-07-25T01:32:49.086Z,17.91
2023-07-25T01:35:51.339Z,17.97
2023-07-25T01:38:53.288Z,18.09
2023-07-25T01:41:56.546Z,18.17
2023-07-25T01:44:58.796Z,18.20
2023-07-25T01:48:00.628Z,18.20
2023-07-25T01:51:02.730Z,18.14
2023-07-25T01:54:04.919Z,18.12
2023-07-25T01:57:08.904Z,18.02
2023-07-25T02:00:12.367Z,18.16
2023-07-25T02:03:14.479Z,18.15
2023-07-25T02:06:17.579Z,18.31
2023-07-25T02:09:19.605Z,18.32
2023-07-25T02:12:23.469Z,18.38
2023-07-25T02:15:25.456Z,18.36
2023-07-25T02:18:27.261Z,18.39
2023-07-25T02:21:29.485Z,18.50
2023-07-25T02:24:31.732Z,18.63
2023-07-25T02:27:35.183Z,18.69
2023-07-25T02:30:40.062Z,18.69
2023-07-25T02:33:41.977Z,18.73
2023-07-25T02:36:43.999Z,18.80
2023-07-25T02:39:46.093Z,18.87
2023-07-25T02:42:49.494Z,18.89
2023-07-25T02:45:51.629Z,18.95
2023-07-25T02:48:53.769Z,19.00
2023-07-25T02:51:55.837Z,18.99
2023-07-25T02:54:57.687Z,19.02
2023-07-25T02:58:01.795Z,19.00
2023-07-25T03:01:03.595Z,19.03
2023-07-25T03:04:08.328Z,18.99
2023-07-25T03:07:10.150Z,18.69
2023-07-25T03:10:13.061Z,18.60
2023-07-25T03:13:16.391Z,18.73
2023-07-25T03:16:18.667Z,18.70
2023-07-25T03:19:20.466Z,18.69
2023-07-25T03:22:22.278Z,18.70
2023-07-25T03:25:24.158Z,18.71
2023-07-25T03:28:27.285Z,18.75
2023-07-25T03:31:29.197Z,18.65
2023-07-25T03:34:31.207Z,18.28
2023-07-25T03:37:33.326Z,18.13
2023-07-25T03:40:35.301Z,18.15
2023-07-25T03:43:39.718Z,18.27
2023-07-25T03:46:41.774Z,18.17
2023-07-25T03:49:43.806Z,18.27
2023-07-25T03:52:45.858Z,18.08
2023-07-25T03:55:48.100Z,17.96
2023-07-25T03:58:51.551Z,17.78
2023-07-25T04:01:53.301Z,17.75
2023-07-25T04:04:55.603Z,17.75
2023-07-25T04:07:57.846Z,17.70
2023-07-25T04:10:59.738Z,17.71
2023-07-25T04:14:03.105Z,17.74
2023-07-25T04:17:05.638Z,17.84
2023-07-25T04:20:09.213Z,18.03
2023-07-25T04:23:11.624Z,18.14
2023-07-25T04:26:13.572Z,18.22
2023-07-25T04:29:17.063Z,18.28
2023-07-25T04:32:19.041Z,18.34
2023-07-25T04:35:21.069Z,18.43
2023-07-25T04:38:22.806Z,18.46
2023-07-25T04:41:25.852Z,18.50
2023-07-25T04:44:29.224Z,18.57
2023-07-25T04:47:31.305Z,18.58
2023-07-25T04:50:33.324Z,18.48
2023-07-25T04:53:35.436Z,18.35
2023-07-25T04:56:37.645Z,18.29
2023-07-25T04:59:43.144Z,18.33
2023-07-25T05:02:45.136Z,18.32
2023-07-25T05:05:47.708Z,18.42
2023-07-25T05:08:49.433Z,18.46
2023-07-25T05:11:51.480Z,18.48
2023-07-25T05:14:54.841Z,18.50
2023-07-25T05:17:56.772Z,18.48
2023-07-25T05:20:59.810Z,18.48
2023-07-25T05:24:01.765Z,18.55
2023-07-25T05:27:03.833Z,18.56
2023-07-25T05:30:08.156Z,18.48
2023-07-25T05:33:10.198Z,18.32
2023-07-25T05:36:12.446Z,18.15
2023-07-25T05:39:14.199Z,18.17
2023-07-25T05:42:15.894Z,18.21
2023-07-25T05:45:20.752Z,18.21
2023-07-25T05:48:25.089Z,18.17
2023-07-25T05:51:27.101Z,18.21
2023-07-25T05:54:29.068Z,18.23
2023-07-25T05:57:31.091Z,18.27
2023-07-25T06:00:35.250Z,18.29
2023-07-25T06:03:37.065Z,18.32
2023-07-25T06:06:40.221Z,18.06
2023-07-25T06:09:42.005Z,17.81
2023-07-25T06:12:44.074Z,17.86
2023-07-25T06:15:47.296Z,17.97
2023-07-25T06:18:50.362Z,17.92
2023-07-25T06:21:52.431Z,17.99
2023-07-25T06:24:54.592Z,18.05
2023-07-25T06:27:56.716Z,18.15
2023-07-25T06:31:00.057Z,18.24
2023-07-25T06:34:01.969Z,18.32
2023-07-25T06:37:03.946Z,18.40
2023-07-25T06:40:07.269Z,18.28
2023-07-25T06:43:09.236Z,17.98
2023-07-25T06:46:16.594Z,17.68
2023-07-25T06:49:18.626Z,17.88
2023-07-25T06:52:20.387Z,18.02
2023-07-25T06:55:22.572Z,18.15
2023-07-25T06:58:24.534Z,18.25
2023-07-25T07:01:29.486Z,18.35
2023-07-25T07:04:31.659Z,18.35
2023-07-25T07:07:34.643Z,18.37
2023-07-25T07:10:39.369Z,18.40
2023-07-25T07:13:41.142Z,18.20
2023-07-25T07:16:44.345Z,18.14
2023-07-25T07:19:46.287Z,18.18
2023-07-25T07:22:48.294Z,18.28
2023-07-25T07:25:51.443Z,18.26
2023-07-25T07:28:53.258Z,18.28
2023-07-25T07:31:56.472Z,18.34
2023-07-25T07:34:59.239Z,18.35
2023-07-25T07:38:01.021Z,18.39
2023-07-25T07:41:02.753Z,18.41
2023-07-25T07:44:04.954Z,18.43
2023-07-25T07:47:08.167Z,18.51
2023-07-25T07:50:10.535Z,18.57
2023-07-25T07:53:12.444Z,18.64
2023-07-25T07:56:14.455Z,18.71
2023-07-25T07:59:16.429Z,18.75
2023-07-25T08:02:20.944Z,18.83
2023-07-25T08:05:22.995Z,18.87
2023-07-25T08:08:25.068Z,18.88
2023-07-25T08:11:26.953Z,18.87
2023-07-25T08:14:28.932Z,18.92
2023-07-25T08:17:32.306Z,19.00
2023-07-25T08:20:34.536Z,19.06
2023-07-25T08:23:36.297Z,19.13
2023-07-25T08:26:38.058Z,19.10
2023-07-25T08:29:40.494Z,19.02
2023-07-25T08:32:43.693Z,19.04
2023-07-25T08:35:47.457Z,19.10
2023-07-25T08:38:49.200Z,19.16
2023-07-25T08:41:53.451Z,19.21
2023-07-25T08:44:56.682Z,19.24
2023-07-25T08:48:05.568Z,19.19
2023-07-25T08:51:08.632Z,19.22
2023-07-25T08:54:17.937Z,19.14
2023-07-25T08:57:22.357Z,19.08
2023-07-25T09:00:26.244Z,19.19
2023-07-25T09:03:30.819Z,19.21
2023-07-25T09:06:32.724Z,19.23
2023-07-25T09:09:34.625Z,19.27
2023-07-25T09:12:36.444Z,19.34
2023-07-25T09:15:38.316Z,19.36
2023-07-25T09:18:41.505Z,19.43
2023-07-25T09:21:48.277Z,19.48
2023-07-25T09:24:50.318Z,19.42
2023-07-25T09:27:55.011Z,19.43
2023-07-25T09:30:57.220Z,19.45
2023-07-25T09:34:00.665Z,19.41
2023-07-25T09:37:03.438Z,19.41
2023-07-25T09:40:09.024Z,19.32
2023-07-25T09:43:21.773Z,19.26
2023-07-25T09:46:23.541Z,19.25
2023-07-25T09:49:26.672Z,19.33
2023-07-25T09:52:28.842Z,19.34
2023-07-25T09:55:30.744Z,19.22
2023-07-25T09:58:33.093Z,19.29
2023-07-25T10:01:39.176Z,19.31
2023-07-25T10:04:42.977Z,19.30
2023-07-25T10:07:46.701Z,19.27
2023-07-25T10:10:49.414Z,19.31
2023-07-25T10:13:51.868Z,19.35
2023-07-25T10:16:53.889Z,19.41
2023-07-25T10:19:57.034Z,19.48
2023-07-25T10:23:07.828Z,19.49
2023-07-25T10:26:10.754Z,19.47
2023-07-25T10:29:38.055Z,19.41
2023-07-25T10:32:47.454Z,19.39
2023-07-25T10:35:52.678Z,19.47
2023-07-25T10:39:07.011Z,19.42
2023-07-25T10:42:15.696Z,19.46
2023-07-25T10:45:22.107Z,19.45
2023-07-25T10:48:31.931Z,19.53
2023-07-25T10:51:51.857Z,19.53
2023-07-25T10:55:04.046Z,19.50
2023-07-25T10:58:09.770Z,19.47
2023-07-25T11:01:33.125Z,19.55
2023-07-25T11:04:35.613Z,19.57
2023-07-25T11:07:41.886Z,19.52
2023-07-25T11:10:43.886Z,19.52
2023-07-25T11:13:47.040Z,19.59
2023-07-25T11:16:52.296Z,19.60
2023-07-25T11:19:54.243Z,19.50
2023-07-25T11:23:00.001Z,19.49
2023-07-25T11:26:03.708Z,19.56
2023-07-25T11:29:06.443Z,19.55
2023-07-25T11:32:09.788Z,19.42
2023-07-25T11:35:11.925Z,19.43
2023-07-25T11:38:15.119Z,19.23
2023-07-25T11:41:17.389Z,18.95
2023-07-25T11:44:20.532Z,18.88
2023-07-25T11:47:22.821Z,18.80
2023-07-25T11:50:31.045Z,18.87
2023-07-25T11:53:35.888Z,19.06
2023-07-25T11:56:41.136Z,19.18
2023-07-25T11:59:43.431Z,19.30
2023-07-25T12:02:45.278Z,19.44
2023-07-25T12:05:53.144Z,19.73
2023-07-25T12:08:56.630Z,19.82
2023-07-25T12:11:58.729Z,19.75
2023-07-25T12:15:02.623Z,19.71
2023-07-25T12:18:04.837Z,19.62
2023-07-25T12:21:07.072Z,19.62
2023-07-25T12:24:11.539Z,19.45
2023-07-25T12:27:17.290Z,19.20
2023-07-25T12:30:19.174Z,19.19
2023-07-25T12:33:21.706Z,19.28
2023-07-25T12:36:23.799Z,19.17
2023-07-25T12:39:27.180Z,19.09
2023-07-25T12:42:29.011Z,18.98
2023-07-25T12:45:31.194Z,18.82
2023-07-25T12:48:33.263Z,18.88
2023-07-25T12:51:35.246Z,18.88
2023-07-25T12:54:38.888Z,18.80
2023-07-25T12:57:40.830Z,18.82
2023-07-25T13:00:43.929Z,18.63
2023-07-25T13:03:46.270Z,18.68
2023-07-25T13:06:50.705Z,18.63
2023-07-25T13:09:54.061Z,18.75
2023-07-25T13:12:55.967Z,18.81
2023-07-25T13:15:57.845Z,18.82
2023-07-25T13:18:59.891Z,18.90
2023-07-25T13:22:02.100Z,18.79
2023-07-25T13:25:06.297Z,18.90
2023-07-25T13:28:08.573Z,18.82
2023-07-25T13:31:10.392Z,18.72
2023-07-25T13:34:12.513Z,18.83
2023-07-25T13:37:14.878Z,18.89
2023-07-25T13:40:18.183Z,18.94
2023-07-25T13:43:20.205Z,18.95
2023-07-25T13:46:22.326Z,18.95
2023-07-25T13:49:24.149Z,18.96
2023-07-25T13:52:26.054Z,18.88
2023-07-25T13:55:29.309Z,18.93
2023-07-25T13:58:31.510Z,18.99
2023-07-25T14:01:33.748Z,19.03
2023-07-25T14:04:37.966Z,19.05
2023-07-25T14:07:41.356Z,19.10
2023-07-25T14:10:46.831Z,19.03
2023-07-25T14:13:49.811Z,19.02
2023-07-25T14:16:53.106Z,19.01
2023-07-25T14:19:56.563Z,19.13
2023-07-25T14:22:59.450Z,19.11
2023-07-25T14:26:04.799Z,19.12
2023-07-25T14:29:07.881Z,19.24
2023-07-25T14:32:11.071Z,19.31
2023-07-25T14:35:13.917Z,19.34
2023-07-25T14:38:18.307Z,19.29
2023-07-25T14:41:22.806Z,19.39
2023-07-25T14:44:25.413Z,19.48
2023-07-25T14:47:27.757Z,19.50
2023-07-25T14:50:30.055Z,19.49
2023-07-25T14:53:32.210Z,19.45
2023-07-25T14:56:35.825Z,19.54
2023-07-25T14:59:38.886Z,19.54
2023-07-25T15:02:42.768Z,19.43
2023-07-25T15:05:44.729Z,19.48
2023-07-25T15:08:46.819Z,19.30
2023-07-25T15:11:50.427Z,19.28
2023-07-25T15:14:52.757Z,19.33
2023-07-25T15:17:55.482Z,19.25
2023-07-25T15:20:58.376Z,19.10
2023-07-25T15:24:01.288Z,19.08
2023-07-25T15:27:06.646Z,19.07
2023-07-25T15:30:11.652Z,19.03
2023-07-25T15:33:15.151Z,19.02
2023-07-25T15:36:19.628Z,19.07
2023-07-25T15:39:23.419Z,18.99
2023-07-25T15:42:28.156Z,19.00
2023-07-25T15:45:31.891Z,18.94
2023-07-25T15:48:35.676Z,19.14
2023-07-25T15:51:40.262Z,19.28
2023-07-25T15:54:43.803Z,19.50
2023-07-25T15:57:48.628Z,19.88
2023-07-25T16:00:52.512Z,20.11
2023-07-25T16:03:55.723Z,20.24
2023-07-25T16:06:59.158Z,20.19
2023-07-25T16:10:03.449Z,20.09
2023-07-25T16:13:08.145Z,19.91
2023-07-25T16:16:11.578Z,20.12
2023-07-25T16:19:15.300Z,20.54
2023-07-25T16:22:18.783Z,20.76
2023-07-25T16:25:23.754Z,20.74
2023-07-25T16:28:29.007Z,20.78
2023-07-25T16:31:34.103Z,20.69
2023-07-25T16:34:38.543Z,20.96
2023-07-25T16:37:43.422Z,21.31
2023-07-25T16:40:47.485Z,21.81
2023-07-25T16:43:52.947Z,22.30
2023-07-25T16:46:56.787Z,21.85
2023-07-25T16:50:00.209Z,21.20
2023-07-25T16:53:07.095Z,20.85
2023-07-25T16:56:12.195Z,20.64
2023-07-25T16:59:18.866Z,20.36
2023-07-25T17:02:23.581Z,20.27
2023-07-25T17:05:27.305Z,20.24
2023-07-25T17:08:31.190Z,20.06
2023-07-25T17:11:36.379Z,20.22
2023-07-25T17:14:42.029Z,20.21
2023-07-25T17:17:46.175Z,20.16
2023-07-25T17:20:49.933Z,19.95
2023-07-25T17:23:54.812Z,19.93
2023-07-25T17:26:59.163Z,19.82
2023-07-25T17:30:04.701Z,19.74
2023-07-25T17:33:08.993Z,19.77
2023-07-25T17:36:13.000Z,19.70
2023-07-25T17:39:17.297Z,19.71
2023-07-25T17:42:21.513Z,19.50
2023-07-25T17:45:28.800Z,19.64
2023-07-25T17:48:32.356Z,19.55
2023-07-25T17:51:37.864Z,19.45
2023-07-25T17:54:42.058Z,19.24
2023-07-25T17:57:46.969Z,18.59
2023-07-25T18:00:52.395Z,18.34
2023-07-25T18:03:56.679Z,18.27
2023-07-25T18:07:01.108Z,17.65
2023-07-25T18:10:05.193Z,17.42
2023-07-25T18:13:08.926Z,17.23
2023-07-25T18:16:15.003Z,16.80
2023-07-25T18:19:18.556Z,16.62
2023-07-25T18:22:25.120Z,16.43
2023-07-25T18:25:28.832Z,16.43
2023-07-25T18:28:32.961Z,16.32
2023-07-25T18:31:38.960Z,15.78
2023-07-25T18:34:42.623Z,15.46
2023-07-25T18:37:48.364Z,15.34
2023-07-25T18:40:52.878Z,15.39
2023-07-25T18:43:56.323Z,15.33
2023-07-25T18:47:02.796Z,15.70
2023-07-25T18:50:08.438Z,16.01
2023-07-25T18:53:12.111Z,16.12
2023-07-25T18:56:19.052Z,16.35
2023-07-25T18:59:23.539Z,16.59
2023-07-25T19:02:40.152Z,16.76
2023-07-25T19:05:45.231Z,16.80
2023-07-25T19:08:50.083Z,16.66
2023-07-25T19:11:57.423Z,16.59
2023-07-25T19:15:01.746Z,16.65
2023-07-25T19:18:09.315Z,16.69
2023-07-25T19:21:13.178Z,16.83
2023-07-25T19:24:19.076Z,16.87
2023-07-25T19:27:24.420Z,16.80
2023-07-25T19:30:28.419Z,16.72
2023-07-25T19:33:41.780Z,16.69
2023-07-25T19:36:47.416Z,16.62
2023-07-25T19:39:52.349Z,16.61
2023-07-25T19:42:56.125Z,16.58
2023-07-25T19:46:06.318Z,16.46
2023-07-25T19:49:15.860Z,16.46
2023-07-25T19:52:19.853Z,16.51
2023-07-25T19:55:24.172Z,16.46
2023-07-25T19:58:28.137Z,16.25
2023-07-25T20:01:32.292Z,16.40
2023-07-25T20:04:38.180Z,16.40
2023-07-25T20:07:44.232Z,16.49
2023-07-25T20:10:48.033Z,16.52
2023-07-25T20:13:52.559Z,16.44
2023-07-25T20:16:56.514Z,16.51
2023-07-25T20:20:01.971Z,16.57
2023-07-25T20:23:06.516Z,16.40
2023-07-25T20:26:10.943Z,16.36
2023-07-25T20:29:15.484Z,16.46
2023-07-25T20:32:20.235Z,16.56
2023-07-25T20:35:25.839Z,16.58
2023-07-25T20:38:29.961Z,16.67
2023-07-25T20:41:34.100Z,16.69
2023-07-25T20:44:39.119Z,16.81
2023-07-25T20:47:43.225Z,16.85
2023-07-25T20:50:50.046Z,16.90
2023-07-25T20:53:54.327Z,16.98
2023-07-25T20:56:58.120Z,16.92
2023-07-25T21:00:02.137Z,16.97
2023-07-25T21:03:04.323Z,17.04
2023-07-25T21:06:07.570Z,17.01
2023-07-25T21:09:09.408Z,16.98
2023-07-25T21:12:13.379Z,16.98
2023-07-25T21:15:15.945Z,16.90
2023-07-25T21:18:17.739Z,16.67
2023-07-25T21:21:22.411Z,16.36
2023-07-25T21:24:24.624Z,16.29
2023-07-25T21:27:26.345Z,16.03
2023-07-25T21:30:28.448Z,15.89
2023-07-25T21:33:30.570Z,16.02
2023-07-25T21:36:34.098Z,16.04
2023-07-25T21:39:36.087Z,16.14
2023-07-25T21:42:38.024Z,16.23
2023-07-25T21:45:41.254Z,16.31
2023-07-25T21:48:43.051Z,16.26
2023-07-25T21:51:46.233Z,16.26
2023-07-25T21:54:48.082Z,16.19
2023-07-25T21:57:50.121Z,16.24
2023-07-25T22:00:52.417Z,16.33
2023-07-25T22:03:55.131Z,16.12
2023-07-25T22:06:58.299Z,16.19
2023-07-25T22:10:00.064Z,16.30
2023-07-25T22:13:02.389Z,16.34
2023-07-25T22:16:04.588Z,16.44
2023-07-25T22:19:06.824Z,16.40
2023-07-25T22:22:10.109Z,16.47
2023-07-25T22:25:12.090Z,16.55
2023-07-25T22:28:14.176Z,16.46
2023-07-25T22:31:16.161Z,16.32
2023-07-25T22:34:18.050Z,15.98
2023-07-25T22:37:21.616Z,16.08
2023-07-25T22:40:23.427Z,15.96
2023-07-25T22:43:25.768Z,15.89
2023-07-25T22:46:27.829Z,16.03
2023-07-25T22:49:30.159Z,15.99
2023-07-25T22:52:33.515Z,15.84
2023-07-25T22:55:35.446Z,15.75
2023-07-25T22:58:37.232Z,15.65
2023-07-25T23:01:39.061Z,15.67
2023-07-25T23:04:40.887Z,15.80
2023-07-25T23:07:44.830Z,15.79
2023-07-25T23:10:53.740Z,15.65
2023-07-25T23:13:56.164Z,15.57
2023-07-25T23:16:57.999Z,15.45
2023-07-25T23:19:59.981Z,15.36
2023-07-25T23:23:03.589Z,15.43
2023-07-25T23:26:06.669Z,15.29
2023-07-25T23:29:08.447Z,15.00
2023-07-25T23:32:10.573Z,14.98
2023-07-25T23:35:12.754Z,14.81
2023-07-25T23:38:16.501Z,14.86
2023-07-25T23:41:18.408Z,14.77
2023-07-25T23:44:20.488Z,14.70
2023-07-25T23:47:22.306Z,14.63
2023-07-25T23:50:24.225Z,14.64
2023-07-25T23:53:27.973Z,14.85
2023-07-25T23:56:30.621Z,14.77
2023-07-25T23:59:32.747Z,14.90
